Aviation Digital Data Service (ADDS)

Output produced by METARs form (1256 UTC 22 March 2019)
found at http://www.aviationweather.gov/metar/data/
 
Forecast for: PAED (ELMENDORF AFB , AK, US)
Text: TAF PAED 221100Z 2211/2317 27012KT 9999 VCSH SCT070 QNH2944INS
Forecast period: 1100 to 2000 UTC 22 March 2019
Forecast type: FROM: standard forecast or significant change
Winds: from the W (270 degrees) at 14 MPH (12 knots; 6.2 m/s)
Visibility: 6 or more miles 10+ km)
Ceiling: at least 12,000 feet AGL
Clouds: scattered clouds at 7000 feet AGL
Weather: VCSH  (showers in vicinity)
Text: BECMG 2220/2221 VRB06KT 9999 NSW BKN040 610406 QNH2950INS TX06/2221Z TNM01/2213Z
Forecast period: 2000 UTC 22 March 2019 to 1700 UTC 23 March 2019
Forecast type: BECOMING: Conditions expected to become as follows by 2100 UTC 22 March 2019
Winds: variable direction winds at 7 MPH (6 knots; 3.1 m/s)
Visibility: 6 or more miles 10+ km)
Ceiling: 4000 feet AGL
Clouds: broken clouds at 4000 feet AGL
Weather: NSW  (no significant weather)